createdAt,value
2022-08-07T00:00:15.451Z,99764.44
2022-08-07T00:02:45.887Z,99758.19
2022-08-07T00:05:13.434Z,99754.78
2022-08-07T00:07:41.646Z,99707.78
2022-08-07T00:10:27.330Z,99732.53
2022-08-07T00:13:01.242Z,99716.78
2022-08-07T00:15:37.725Z,99730.97
2022-08-07T00:18:18.930Z,99764.28
2022-08-07T00:20:46.760Z,99711.34
2022-08-07T00:23:15.085Z,99731.69
2022-08-07T00:25:51.825Z,99761.31
2022-08-07T00:28:33.572Z,99721.00
2022-08-07T00:31:12.618Z,99765.28
2022-08-07T00:33:43.784Z,99767.41
2022-08-07T00:36:15.223Z,99762.59
2022-08-07T00:38:43.907Z,99750.91
2022-08-07T00:41:14.464Z,99745.56
2022-08-07T00:44:02.024Z,99717.31
2022-08-07T00:46:30.889Z,99762.28
2022-08-07T00:49:03.365Z,99745.56
2022-08-07T00:51:57.753Z,99735.38
2022-08-07T00:54:19.899Z,99731.50
2022-08-07T00:56:49.596Z,99765.16
2022-08-07T00:59:17.713Z,99739.50
2022-08-07T01:01:48.730Z,99713.59
2022-08-07T01:04:24.686Z,99767.59
2022-08-07T01:06:52.031Z,99757.69
2022-08-07T01:09:35.683Z,99766.25
2022-08-07T01:12:28.751Z,99753.19
2022-08-07T01:15:00.958Z,99735.59
2022-08-07T01:17:29.138Z,99752.84
2022-08-07T01:20:02.055Z,99745.09
2022-08-07T01:22:31.526Z,99714.44
2022-08-07T01:24:59.894Z,99723.59
2022-08-07T01:27:31.971Z,99758.78
2022-08-07T01:30:00.678Z,99726.28
2022-08-07T01:32:28.730Z,99714.72
2022-08-07T01:34:56.202Z,99756.16
2022-08-07T01:37:24.738Z,99750.91
2022-08-07T01:39:52.601Z,99728.09
2022-08-07T01:42:37.966Z,99740.31
2022-08-07T01:45:10.002Z,99740.63
2022-08-07T01:48:20.740Z,99735.22
2022-08-07T01:50:32.859Z,99701.38
2022-08-07T01:53:08.633Z,99727.94
2022-08-07T01:55:49.642Z,99744.72
2022-08-07T01:58:29.706Z,99747.56
2022-08-07T02:01:10.046Z,99741.97
2022-08-07T02:04:00.197Z,99721.53
2022-08-07T02:06:31.365Z,99705.28
2022-08-07T02:09:04.500Z,99726.09
2022-08-07T02:12:02.942Z,99711.88
2022-08-07T02:14:35.634Z,99726.22
2022-08-07T02:17:04.134Z,99728.94
2022-08-07T02:20:07.817Z,99720.69
2022-08-07T02:22:25.912Z,99717.28
2022-08-07T02:24:56.188Z,99727.28
2022-08-07T02:27:25.656Z,99677.03
2022-08-07T02:29:55.103Z,99718.66
2022-08-07T02:32:29.796Z,99722.38
2022-08-07T02:34:58.868Z,99696.50
2022-08-07T02:37:34.207Z,99697.88
2022-08-07T02:40:29.777Z,99689.38
2022-08-07T02:42:52.804Z,99714.09
2022-08-07T02:45:20.681Z,99705.28
2022-08-07T02:48:09.965Z,99703.94
2022-08-07T02:50:39.814Z,99711.88
2022-08-07T02:53:11.887Z,99716.47
2022-08-07T02:56:04.287Z,99672.81
2022-08-07T02:58:34.261Z,99690.22
2022-08-07T03:01:03.084Z,99697.81
2022-08-07T03:03:49.489Z,99690.38
2022-08-07T03:06:25.824Z,99705.09
2022-08-07T03:09:02.289Z,99647.94
2022-08-07T03:11:32.653Z,99694.78
2022-08-07T03:14:06.284Z,99660.78
2022-08-07T03:16:34.957Z,99671.13
2022-08-07T03:19:02.111Z,99652.84
2022-08-07T03:21:33.121Z,99693.09
2022-08-07T03:24:19.761Z,99696.50
2022-08-07T03:26:58.455Z,99694.47
2022-08-07T03:29:30.890Z,99691.91
2022-08-07T03:32:02.900Z,99689.38
2022-08-07T03:34:31.852Z,99683.63
2022-08-07T03:37:12.491Z,99689.38
2022-08-07T03:39:59.420Z,99636.44
2022-08-07T03:42:28.938Z,99689.91
2022-08-07T03:44:58.143Z,99681.41
2022-08-07T03:47:28.056Z,99643.75
2022-08-07T03:49:58.109Z,99689.41
2022-08-07T03:52:28.334Z,99697.84
2022-08-07T03:55:07.274Z,99663.03
2022-08-07T03:58:08.698Z,99704.47
2022-08-07T04:00:30.708Z,99663.03
2022-08-07T04:03:03.846Z,99680.09
2022-08-07T04:05:39.460Z,99698.53
2022-08-07T04:08:16.260Z,99692.94
2022-08-07T04:10:54.600Z,99691.75
2022-08-07T04:14:10.510Z,99664.84
2022-08-07T04:16:30.352Z,99697.66
2022-08-07T04:19:04.307Z,99664.00
2022-08-07T04:21:58.827Z,99663.34
2022-08-07T04:24:33.682Z,99655.78
2022-08-07T04:27:03.106Z,99713.09
2022-08-07T04:29:49.010Z,99688.72
2022-08-07T04:32:18.639Z,99673.38
2022-08-07T04:35:05.635Z,99702.13
2022-08-07T04:38:02.859Z,99651.88
2022-08-07T04:40:29.694Z,99703.78
2022-08-07T04:43:01.744Z,99657.63
2022-08-07T04:45:57.610Z,99675.19
2022-08-07T04:48:50.853Z,99711.59
2022-08-07T04:51:38.173Z,99704.66
2022-08-07T04:54:36.794Z,99719.19
2022-08-07T04:58:14.160Z,99727.03
2022-08-07T05:00:18.842Z,99718.53
2022-08-07T05:03:02.389Z,99727.84
2022-08-07T05:05:57.115Z,99689.47
2022-08-07T05:08:59.939Z,99718.72
2022-08-07T05:11:57.262Z,99726.16
2022-08-07T05:14:56.349Z,99689.28
2022-08-07T05:17:52.156Z,99727.50
2022-08-07T05:20:11.927Z,99724.25
2022-08-07T05:22:41.804Z,99727.28
2022-08-07T05:25:36.612Z,99732.72
2022-08-07T05:28:02.615Z,99672.03
2022-08-07T05:30:47.199Z,99711.75
2022-08-07T05:33:15.935Z,99736.94
2022-08-07T05:35:46.200Z,99735.06
2022-08-07T05:39:01.170Z,99737.25
2022-08-07T05:41:12.257Z,99734.53
2022-08-07T05:44:01.554Z,99734.72
2022-08-07T05:46:36.552Z,99728.44
2022-08-07T05:49:11.764Z,99741.97
2022-08-07T05:51:42.292Z,99736.31
2022-08-07T05:54:30.138Z,99737.94
2022-08-07T05:56:57.440Z,99730.97
2022-08-07T05:59:27.379Z,99725.75
2022-08-07T06:01:57.376Z,99727.13
2022-08-07T06:04:26.289Z,99700.81
2022-08-07T06:07:03.955Z,99728.09
2022-08-07T06:10:03.849Z,99716.38
2022-08-07T06:12:21.051Z,99726.13
2022-08-07T06:14:55.280Z,99680.38
2022-08-07T06:17:37.590Z,99733.44
2022-08-07T06:20:06.726Z,99692.47
2022-08-07T06:23:01.831Z,99723.81
2022-08-07T06:25:34.785Z,99717.69
2022-08-07T06:28:07.633Z,99721.81
2022-08-07T06:30:41.368Z,99730.03
2022-08-07T06:33:16.662Z,99713.72
2022-08-07T06:35:47.520Z,99669.97
2022-08-07T06:38:20.558Z,99708.63
2022-08-07T06:40:53.363Z,99691.84
2022-08-07T06:43:23.785Z,99723.75
2022-08-07T06:45:51.601Z,99701.47
2022-08-07T06:48:25.190Z,99691.75
2022-08-07T06:50:55.040Z,99683.88
2022-08-07T06:54:11.758Z,99726.72
2022-08-07T06:56:14.852Z,99717.84
2022-08-07T07:00:13.247Z,99734.78
2022-08-07T07:01:43.659Z,99726.22
2022-08-07T07:04:28.056Z,99730.69
2022-08-07T07:07:18.885Z,99729.31
2022-08-07T07:10:34.788Z,99735.66
2022-08-07T07:13:13.509Z,99740.13
2022-08-07T07:15:57.164Z,99733.00
2022-08-07T07:18:47.412Z,99732.84
2022-08-07T07:21:27.030Z,99683.72
2022-08-07T07:24:13.462Z,99696.13
2022-08-07T07:26:55.165Z,99724.88
2022-08-07T07:29:56.517Z,99659.38
2022-08-07T07:32:33.198Z,99700.41
2022-08-07T07:35:06.097Z,99646.91
2022-08-07T07:37:47.334Z,99663.78
2022-08-07T07:40:26.189Z,99708.06
2022-08-07T07:43:11.747Z,99702.69
2022-08-07T07:46:40.067Z,99715.56
2022-08-07T07:51:08.621Z,99686.78
2022-08-07T07:53:51.302Z,99688.25
2022-08-07T07:56:29.958Z,99707.06
2022-08-07T07:59:01.684Z,99682.47
2022-08-07T08:02:03.732Z,99680.59
2022-08-07T08:04:20.366Z,99687.38
2022-08-07T08:06:54.081Z,99702.16
2022-08-07T08:09:29.539Z,99697.78
2022-08-07T08:12:02.389Z,99694.25
2022-08-07T08:14:36.189Z,99678.25
2022-08-07T08:17:56.033Z,99699.06
2022-08-07T08:20:19.494Z,99656.38
2022-08-07T08:23:10.216Z,99673.22
2022-08-07T08:25:58.267Z,99692.34
2022-08-07T08:28:38.638Z,99667.31
2022-08-07T08:31:14.573Z,99670.91
2022-08-07T08:33:55.911Z,99667.53
2022-08-07T08:36:30.104Z,99670.63
2022-08-07T08:39:01.962Z,99681.41
2022-08-07T08:41:59.066Z,99690.00
2022-08-07T08:44:40.901Z,99691.38
2022-08-07T08:47:52.474Z,99688.88
2022-08-07T08:50:39.427Z,99659.69
2022-08-07T08:53:19.913Z,99663.00
2022-08-07T08:56:02.674Z,99669.59
2022-08-07T08:58:54.463Z,99683.44
2022-08-07T09:01:43.769Z,99656.22
2022-08-07T09:04:43.681Z,99683.25
2022-08-07T09:07:46.372Z,99663.88
2022-08-07T09:10:27.260Z,99682.53
2022-08-07T09:13:00.542Z,99669.72
2022-08-07T09:16:23.468Z,99666.53
2022-08-07T09:18:58.475Z,99662.16
2022-08-07T09:21:57.894Z,99664.16
2022-08-07T09:24:59.328Z,99662.03
2022-08-07T09:27:38.358Z,99638.13
2022-08-07T09:30:27.961Z,99660.34
2022-08-07T09:33:41.132Z,99660.91
2022-08-07T09:36:37.381Z,99616.72
2022-08-07T09:39:53.739Z,99603.91
2022-08-07T09:42:51.392Z,99624.88
2022-08-07T09:47:25.695Z,99636.13
2022-08-07T09:48:56.089Z,99631.88
2022-08-07T09:52:34.797Z,99590.00
2022-08-07T09:56:03.674Z,99633.25
2022-08-07T09:58:33.461Z,99625.91
2022-08-07T10:01:04.793Z,99639.69
2022-08-07T10:04:05.922Z,99602.69
2022-08-07T10:07:26.024Z,99628.06
2022-08-07T10:10:21.333Z,99623.56
2022-08-07T10:13:11.141Z,99623.03
2022-08-07T10:16:06.042Z,99624.34
2022-08-07T10:18:42.301Z,99623.97
2022-08-07T10:21:50.632Z,99602.28
2022-08-07T10:24:47.164Z,99626.91
2022-08-07T10:27:46.252Z,99601.22
2022-08-07T10:30:20.232Z,99614.47
2022-08-07T10:33:15.401Z,99613.41
2022-08-07T10:36:12.659Z,99609.34
2022-08-07T10:39:01.115Z,99589.38
2022-08-07T10:41:56.759Z,99571.44
2022-08-07T10:44:50.066Z,99601.31
2022-08-07T10:47:54.457Z,99595.50
2022-08-07T10:50:47.667Z,99562.91
2022-08-07T10:53:26.402Z,99600.66
2022-08-07T10:56:02.543Z,99595.59
2022-08-07T10:58:59.608Z,99595.13
2022-08-07T11:01:51.662Z,99589.91
2022-08-07T11:04:41.650Z,99590.59
2022-08-07T11:07:56.998Z,99579.72
2022-08-07T11:10:11.146Z,99565.75
2022-08-07T11:13:02.306Z,99591.06
2022-08-07T11:15:34.394Z,99579.69
2022-08-07T11:18:29.641Z,99588.63
2022-08-07T11:21:14.213Z,99590.22
2022-08-07T11:23:50.077Z,99581.59
2022-08-07T11:26:26.750Z,99528.00
2022-08-07T11:29:01.845Z,99563.97
2022-08-07T11:31:42.624Z,99536.59
2022-08-07T11:34:20.997Z,99544.59
2022-08-07T11:37:06.847Z,99544.25
2022-08-07T11:39:59.822Z,99522.28
2022-08-07T11:42:55.332Z,99561.22
2022-08-07T11:45:35.875Z,99563.72
2022-08-07T11:49:04.370Z,99564.59
2022-08-07T11:51:46.999Z,99563.94
2022-08-07T11:54:38.541Z,99536.47
2022-08-07T11:58:00.689Z,99555.88
2022-08-07T12:01:04.198Z,99550.97
2022-08-07T12:03:45.993Z,99549.91
2022-08-07T12:06:51.661Z,99536.50
2022-08-07T12:09:36.734Z,99532.53
2022-08-07T12:12:18.591Z,99526.19
2022-08-07T12:15:17.325Z,99527.34
2022-08-07T12:18:29.933Z,99540.00
2022-08-07T12:22:37.499Z,99517.59
2022-08-07T12:24:38.181Z,99514.25
2022-08-07T12:27:16.880Z,99537.38
2022-08-07T12:29:54.116Z,99532.13
2022-08-07T12:32:34.554Z,99496.72
2022-08-07T12:35:08.230Z,99531.63
2022-08-07T12:38:09.278Z,99511.91
2022-08-07T12:44:02.315Z,99497.97
2022-08-07T12:46:12.304Z,99516.94
2022-08-07T12:48:55.079Z,99532.22
2022-08-07T12:51:46.423Z,99530.09
2022-08-07T12:54:54.680Z,99524.53
2022-08-07T12:57:26.158Z,99526.34
2022-08-07T13:00:16.455Z,99506.19
2022-08-07T13:02:56.959Z,99517.19
2022-08-07T13:06:02.631Z,99494.13
2022-08-07T13:10:18.938Z,99511.41
2022-08-07T13:12:27.067Z,99489.56
2022-08-07T13:15:29.569Z,99510.44
2022-08-07T13:18:28.214Z,99483.88
2022-08-07T13:21:05.209Z,99480.94
2022-08-07T13:24:01.951Z,99505.34
2022-08-07T13:26:35.870Z,99494.22
2022-08-07T13:29:12.831Z,99485.88
2022-08-07T13:31:54.976Z,99498.16
2022-08-07T13:34:36.102Z,99464.81
2022-08-07T13:37:40.844Z,99464.22
2022-08-07T13:40:35.839Z,99462.78
2022-08-07T13:43:16.189Z,99475.34
2022-08-07T13:46:11.285Z,99474.00
2022-08-07T13:51:27.293Z,99473.50
2022-08-07T13:54:01.682Z,99475.22
2022-08-07T13:56:36.134Z,99468.53
2022-08-07T13:59:12.828Z,99467.75
2022-08-07T14:02:04.476Z,99469.94
2022-08-07T14:04:36.028Z,99476.91
2022-08-07T14:07:09.622Z,99425.50
2022-08-07T14:10:01.383Z,99416.69
2022-08-07T14:12:32.315Z,99467.25
2022-08-07T14:15:09.053Z,99464.28
2022-08-07T14:18:23.942Z,99457.56
2022-08-07T14:20:39.970Z,99456.28
2022-08-07T14:23:59.431Z,99467.31
2022-08-07T14:29:08.832Z,99472.50
2022-08-07T14:31:57.780Z,99462.72
2022-08-07T14:34:30.320Z,99460.72
2022-08-07T14:40:15.466Z,99428.72
2022-08-07T14:43:00.808Z,99459.47
2022-08-07T14:48:34.504Z,99464.03
2022-08-07T14:51:07.475Z,99462.84
2022-08-07T14:54:08.649Z,99469.13
2022-08-07T14:56:33.350Z,99461.50
2022-08-07T14:59:14.003Z,99443.31
2022-08-07T15:01:58.854Z,99401.41
2022-08-07T15:04:28.916Z,99380.41
2022-08-07T15:06:57.907Z,99384.38
2022-08-07T15:09:59.833Z,99427.69
2022-08-07T15:12:26.049Z,99403.97
2022-08-07T15:15:07.435Z,99368.84
2022-08-07T15:20:55.214Z,99391.53
2022-08-07T15:25:14.459Z,99358.81
2022-08-07T15:26:35.833Z,99364.06
2022-08-07T15:30:04.692Z,99423.47
2022-08-07T15:32:00.803Z,99441.13
2022-08-07T15:34:50.454Z,99420.56
2022-08-07T15:37:29.328Z,99408.59
2022-08-07T15:40:34.010Z,99431.47
2022-08-07T15:43:10.806Z,99437.75
2022-08-07T15:49:13.086Z,99430.19
2022-08-07T15:54:34.805Z,99373.22
2022-08-07T15:57:10.816Z,99434.84
2022-08-07T16:00:31.258Z,99365.03
2022-08-07T16:03:00.810Z,99412.75
2022-08-07T16:05:31.599Z,99358.75
2022-08-07T16:08:30.793Z,99395.53
2022-08-07T16:11:28.679Z,99339.44
2022-08-07T16:14:11.969Z,99415.22
2022-08-07T16:17:15.212Z,99424.88
2022-08-07T16:20:33.647Z,99425.88
2022-08-07T16:23:53.183Z,99426.69
2022-08-07T16:26:30.700Z,99435.00
2022-08-07T16:30:08.756Z,99438.75
2022-08-07T16:31:58.679Z,99437.72
2022-08-07T16:34:50.521Z,99432.69
2022-08-07T16:38:05.547Z,99424.19
2022-08-07T16:40:57.334Z,99424.38
2022-08-07T16:44:05.992Z,99425.03
2022-08-07T16:46:48.434Z,99418.06
2022-08-07T16:50:27.190Z,99416.16
2022-08-07T16:53:55.617Z,99422.16
2022-08-07T16:56:17.281Z,99401.56
2022-08-07T16:59:10.698Z,99417.31
2022-08-07T17:01:51.366Z,99404.69
2022-08-07T17:05:06.163Z,99426.28
2022-08-07T17:07:55.458Z,99424.22
2022-08-07T17:10:36.956Z,99423.56
2022-08-07T17:13:22.882Z,99420.25
2022-08-07T17:15:57.876Z,99424.66
2022-08-07T17:18:48.908Z,99419.44
2022-08-07T17:21:24.650Z,99404.75
2022-08-07T17:23:59.593Z,99409.59
2022-08-07T17:26:30.474Z,99420.88
2022-08-07T17:30:13.890Z,99423.78
2022-08-07T17:32:35.172Z,99394.91
2022-08-07T17:35:56.871Z,99380.38
2022-08-07T17:38:50.282Z,99394.19
2022-08-07T17:42:03.505Z,99422.78
2022-08-07T17:44:49.933Z,99422.25
2022-08-07T17:47:42.135Z,99419.16
2022-08-07T17:50:30.655Z,99420.63
2022-08-07T17:53:07.952Z,99377.31
2022-08-07T17:56:28.782Z,99422.91
2022-08-07T17:59:02.215Z,99430.97
2022-08-07T18:01:40.360Z,99426.88
2022-08-07T18:04:31.229Z,99431.81
2022-08-07T18:07:22.593Z,99429.81
2022-08-07T18:10:06.824Z,99426.59
2022-08-07T18:12:54.390Z,99395.28
2022-08-07T18:15:32.737Z,99426.72
2022-08-07T18:18:46.718Z,99357.16
2022-08-07T18:21:27.470Z,99393.91
2022-08-07T18:24:33.064Z,99434.97
2022-08-07T18:27:38.932Z,99434.75
2022-08-07T18:30:32.765Z,99429.22
2022-08-07T18:33:29.621Z,99400.25
2022-08-07T18:36:16.394Z,99445.72
2022-08-07T18:38:56.298Z,99445.53
2022-08-07T18:41:54.488Z,99413.31
2022-08-07T18:45:39.741Z,99452.66
2022-08-07T18:47:44.396Z,99449.00
2022-08-07T18:50:40.525Z,99444.91
2022-08-07T18:53:36.987Z,99452.38
2022-08-07T18:56:30.756Z,99458.00
2022-08-07T18:59:47.160Z,99461.22
2022-08-07T19:02:36.540Z,99461.16
2022-08-07T19:06:02.248Z,99457.06
2022-08-07T19:08:50.548Z,99464.31
2022-08-07T19:11:36.378Z,99455.78
2022-08-07T19:14:08.042Z,99460.19
2022-08-07T19:17:07.724Z,99391.91
2022-08-07T19:19:59.320Z,99464.94
2022-08-07T19:22:38.114Z,99468.69
2022-08-07T19:25:12.673Z,99471.41
2022-08-07T19:28:30.630Z,99414.75
2022-08-07T19:31:41.708Z,99389.94
2022-08-07T19:33:52.303Z,99438.91
2022-08-07T19:36:28.343Z,99394.53
2022-08-07T19:38:59.677Z,99466.25
2022-08-07T19:41:44.901Z,99464.50
2022-08-07T19:44:31.535Z,99408.28
2022-08-07T19:47:10.756Z,99463.16
2022-08-07T19:49:56.375Z,99447.50
2022-08-07T19:52:28.659Z,99409.44
2022-08-07T19:55:00.687Z,99485.16
2022-08-07T19:58:01.029Z,99397.81
2022-08-07T20:00:31.838Z,99414.47
2022-08-07T20:03:34.676Z,99470.19
2022-08-07T20:06:04.760Z,99466.84
2022-08-07T20:08:39.790Z,99409.78
2022-08-07T20:11:34.274Z,99475.94
2022-08-07T20:14:07.314Z,99443.50
2022-08-07T20:16:45.499Z,99493.31
2022-08-07T20:19:14.670Z,99450.44
2022-08-07T20:21:48.316Z,99494.47
2022-08-07T20:24:28.901Z,99452.31
2022-08-07T20:27:02.643Z,99413.03
2022-08-07T20:29:48.855Z,99420.75
2022-08-07T20:32:25.985Z,99442.56
2022-08-07T20:35:00.096Z,99417.75
2022-08-07T20:37:37.064Z,99419.06
2022-08-07T20:40:32.338Z,99481.75
2022-08-07T20:43:14.483Z,99508.22
2022-08-07T20:46:28.388Z,99518.44
2022-08-07T20:48:49.572Z,99492.91
2022-08-07T20:51:30.659Z,99511.72
2022-08-07T20:54:09.446Z,99510.22
2022-08-07T20:56:46.222Z,99444.22
2022-08-07T21:00:05.394Z,99476.72
2022-08-07T21:02:38.396Z,99446.38
2022-08-07T21:05:18.445Z,99447.66
2022-08-07T21:08:12.595Z,99449.78
2022-08-07T21:10:47.764Z,99445.25
2022-08-07T21:13:24.607Z,99517.16
2022-08-07T21:16:11.676Z,99474.72
2022-08-07T21:18:46.097Z,99469.00
2022-08-07T21:21:16.655Z,99524.84
2022-08-07T21:23:58.603Z,99516.88
2022-08-07T21:27:12.287Z,99530.41
2022-08-07T21:30:18.891Z,99513.63
2022-08-07T21:33:03.402Z,99472.00
2022-08-07T21:36:31.465Z,99459.13
2022-08-07T21:39:47.772Z,99510.19
2022-08-07T21:42:37.487Z,99531.00
2022-08-07T21:46:08.049Z,99473.22
2022-08-07T21:48:41.438Z,99537.94
2022-08-07T21:51:51.885Z,99529.63
2022-08-07T21:54:45.928Z,99442.84
2022-08-07T21:57:51.694Z,99506.38
2022-08-07T22:00:26.597Z,99436.88
2022-08-07T22:03:07.453Z,99522.31
2022-08-07T22:05:50.330Z,99451.22
2022-08-07T22:08:24.587Z,99474.25
2022-08-07T22:11:01.680Z,99461.16
2022-08-07T22:13:51.985Z,99437.13
2022-08-07T22:16:45.430Z,99527.84
2022-08-07T22:19:57.366Z,99536.66
2022-08-07T22:22:30.009Z,99497.88
2022-08-07T22:25:11.093Z,99541.81
2022-08-07T22:28:08.055Z,99530.19
2022-08-07T22:30:57.131Z,99547.22
2022-08-07T22:33:57.145Z,99523.50
2022-08-07T22:36:27.843Z,99546.41
2022-08-07T22:39:23.392Z,99539.06
2022-08-07T22:42:03.723Z,99535.88
2022-08-07T22:44:58.142Z,99541.41
2022-08-07T22:47:45.376Z,99528.56
2022-08-07T22:50:28.850Z,99546.66
2022-08-07T22:53:09.209Z,99531.41
2022-08-07T22:56:00.765Z,99539.19
2022-08-07T22:58:28.288Z,99540.59
2022-08-07T23:04:00.141Z,99516.28
2022-08-07T23:06:51.948Z,99527.78
2022-08-07T23:10:00.990Z,99540.38
2022-08-07T23:13:11.422Z,99531.59
2022-08-07T23:16:44.771Z,99542.28
2022-08-07T23:19:58.566Z,99540.41
2022-08-07T23:22:32.713Z,99536.91
2022-08-07T23:25:20.987Z,99530.00
2022-08-07T23:28:22.772Z,99542.84
2022-08-07T23:31:07.091Z,99531.81
2022-08-07T23:34:35.692Z,99535.56
2022-08-07T23:37:20.106Z,99543.56
2022-08-07T23:39:55.548Z,99541.53
2022-08-07T23:42:53.362Z,99541.41
2022-08-07T23:45:33.438Z,99533.66
2022-08-07T23:48:35.400Z,99540.63
2022-08-07T23:52:58.251Z,99535.19
2022-08-07T23:54:06.293Z,99542.69
2022-08-07T23:57:04.163Z,99545.06
